sensor_id;sensor_type;location;lat;lon;timestamp;pressure;altitude;pressure_sealevel;temperature;humidity
26487;BME280;14425;56.136;40.360;2022-08-19T00:01:12;100353.44;;;19.51;62.77
26487;BME280;14425;56.136;40.360;2022-08-19T00:03:38;100355.13;;;19.46;62.78
26487;BME280;14425;56.136;40.360;2022-08-19T00:06:04;100361.97;;;19.35;63.55
26487;BME280;14425;56.136;40.360;2022-08-19T00:08:30;100363.50;;;19.14;64.94
26487;BME280;14425;56.136;40.360;2022-08-19T00:10:56;100365.94;;;19.00;65.67
26487;BME280;14425;56.136;40.360;2022-08-19T00:13:22;100365.97;;;19.04;65.56
26487;BME280;14425;56.136;40.360;2022-08-19T00:15:47;100364.34;;;19.13;65.21
26487;BME280;14425;56.136;40.360;2022-08-19T00:18:13;100373.06;;;19.14;65.34
26487;BME280;14425;56.136;40.360;2022-08-19T00:20:38;100365.88;;;18.97;66.58
26487;BME280;14425;56.136;40.360;2022-08-19T00:23:05;100374.34;;;18.79;67.84
26487;BME280;14425;56.136;40.360;2022-08-19T00:25:31;100379.72;;;18.89;67.73
26487;BME280;14425;56.136;40.360;2022-08-19T00:27:57;100368.56;;;19.02;67.12
26487;BME280;14425;56.136;40.360;2022-08-19T00:30:24;100374.69;;;19.06;66.85
26487;BME280;14425;56.136;40.360;2022-08-19T00:32:49;100370.31;;;19.01;67.38
26487;BME280;14425;56.136;40.360;2022-08-19T00:35:15;100372.19;;;19.13;66.87
26487;BME280;14425;56.136;40.360;2022-08-19T00:37:42;100377.44;;;19.13;67.20
26487;BME280;14425;56.136;40.360;2022-08-19T00:40:09;100383.66;;;19.23;66.95
26487;BME280;14425;56.136;40.360;2022-08-19T00:42:36;100371.31;;;19.11;67.33
26487;BME280;14425;56.136;40.360;2022-08-19T00:45:03;100380.81;;;19.05;68.12
26487;BME280;14425;56.136;40.360;2022-08-19T00:47:34;100382.53;;;19.06;68.49
26487;BME280;14425;56.136;40.360;2022-08-19T00:49:59;100373.00;;;19.08;68.35
26487;BME280;14425;56.136;40.360;2022-08-19T00:52:29;100374.78;;;19.10;69.01
26487;BME280;14425;56.136;40.360;2022-08-19T00:54:57;100378.25;;;19.08;68.87
26487;BME280;14425;56.136;40.360;2022-08-19T00:57:33;100372.22;;;19.15;68.45
26487;BME280;14425;56.136;40.360;2022-08-19T01:00:00;100370.28;;;19.00;69.78
26487;BME280;14425;56.136;40.360;2022-08-19T01:02:30;100365.06;;;19.00;69.82
26487;BME280;14425;56.136;40.360;2022-08-19T01:04:56;100375.59;;;19.06;69.74
26487;BME280;14425;56.136;40.360;2022-08-19T01:07:22;100366.78;;;18.98;70.24
26487;BME280;14425;56.136;40.360;2022-08-19T01:09:48;100365.88;;;18.94;70.62
26487;BME280;14425;56.136;40.360;2022-08-19T01:12:14;100370.19;;;18.94;70.83
26487;BME280;14425;56.136;40.360;2022-08-19T01:14:39;100369.19;;;18.84;71.58
26487;BME280;14425;56.136;40.360;2022-08-19T01:17:06;100366.59;;;18.84;71.71
26487;BME280;14425;56.136;40.360;2022-08-19T01:19:36;100377.88;;;18.81;71.88
26487;BME280;14425;56.136;40.360;2022-08-19T01:22:08;100378.72;;;18.82;72.23
26487;BME280;14425;56.136;40.360;2022-08-19T01:24:36;100385.69;;;18.80;72.38
26487;BME280;14425;56.136;40.360;2022-08-19T01:27:03;100391.88;;;18.85;72.73
26487;BME280;14425;56.136;40.360;2022-08-19T01:29:29;100389.16;;;18.80;72.45
26487;BME280;14425;56.136;40.360;2022-08-19T01:31:55;100388.56;;;18.98;71.55
26487;BME280;14425;56.136;40.360;2022-08-19T01:34:20;100394.59;;;18.91;72.40
26487;BME280;14425;56.136;40.360;2022-08-19T01:36:46;100398.72;;;18.78;72.85
26487;BME280;14425;56.136;40.360;2022-08-19T01:39:14;100397.88;;;18.82;72.85
26487;BME280;14425;56.136;40.360;2022-08-19T01:41:40;100398.88;;;18.86;73.02
26487;BME280;14425;56.136;40.360;2022-08-19T01:44:06;100397.78;;;18.73;73.70
26487;BME280;14425;56.136;40.360;2022-08-19T01:46:32;100402.00;;;18.65;74.40
26487;BME280;14425;56.136;40.360;2022-08-19T01:48:58;100399.28;;;18.57;75.22
26487;BME280;14425;56.136;40.360;2022-08-19T01:51:24;100404.44;;;18.54;75.75
26487;BME280;14425;56.136;40.360;2022-08-19T01:53:50;100396.00;;;18.72;74.39
26487;BME280;14425;56.136;40.360;2022-08-19T01:56:16;100392.41;;;18.64;75.14
26487;BME280;14425;56.136;40.360;2022-08-19T01:58:44;100402.00;;;18.65;75.37
26487;BME280;14425;56.136;40.360;2022-08-19T02:01:11;100396.66;;;18.56;76.15
26487;BME280;14425;56.136;40.360;2022-08-19T02:03:37;100392.16;;;18.45;76.95
26487;BME280;14425;56.136;40.360;2022-08-19T02:06:03;100396.66;;;18.57;76.54
26487;BME280;14425;56.136;40.360;2022-08-19T02:08:31;100397.75;;;18.72;75.36
26487;BME280;14425;56.136;40.360;2022-08-19T02:10:57;100401.81;;;18.50;76.67
26487;BME280;14425;56.136;40.360;2022-08-19T02:13:23;100392.16;;;18.47;77.46
26487;BME280;14425;56.136;40.360;2022-08-19T02:16:09;100397.41;;;18.47;76.94
26487;BME280;14425;56.136;40.360;2022-08-19T02:18:35;100401.81;;;18.50;77.64
26487;BME280;14425;56.136;40.360;2022-08-19T02:21:00;100405.97;;;18.38;78.17
26487;BME280;14425;56.136;40.360;2022-08-19T02:23:26;100407.78;;;18.44;78.04
26487;BME280;14425;56.136;40.360;2022-08-19T02:25:52;100404.25;;;18.40;78.29
26487;BME280;14425;56.136;40.360;2022-08-19T02:28:18;100402.47;;;18.36;78.57
26487;BME280;14425;56.136;40.360;2022-08-19T02:30:43;100412.84;;;18.33;79.02
26487;BME280;14425;56.136;40.360;2022-08-19T02:33:09;100410.22;;;18.32;79.50
26487;BME280;14425;56.136;40.360;2022-08-19T02:35:34;100411.06;;;18.31;79.02
26487;BME280;14425;56.136;40.360;2022-08-19T02:38:00;100414.59;;;18.34;79.55
26487;BME280;14425;56.136;40.360;2022-08-19T02:40:51;100425.09;;;18.37;79.45
26487;BME280;14425;56.136;40.360;2022-08-19T02:43:17;100424.16;;;18.34;79.43
26487;BME280;14425;56.136;40.360;2022-08-19T02:45:45;100417.19;;;18.33;79.78
26487;BME280;14425;56.136;40.360;2022-08-19T02:48:11;100429.25;;;18.26;80.47
26487;BME280;14425;56.136;40.360;2022-08-19T02:50:38;100420.69;;;18.33;79.86
26487;BME280;14425;56.136;40.360;2022-08-19T02:53:04;100421.59;;;18.35;80.18
26487;BME280;14425;56.136;40.360;2022-08-19T02:55:29;100424.97;;;18.28;80.73
26487;BME280;14425;56.136;40.360;2022-08-19T02:57:55;100426.00;;;18.38;80.50
26487;BME280;14425;56.136;40.360;2022-08-19T03:00:22;100425.25;;;18.46;79.87
26487;BME280;14425;56.136;40.360;2022-08-19T03:02:49;100422.50;;;18.39;80.35
26487;BME280;14425;56.136;40.360;2022-08-19T03:05:14;100435.44;;;18.31;80.33
26487;BME280;14425;56.136;40.360;2022-08-19T03:07:40;100432.84;;;18.33;80.95
26487;BME280;14425;56.136;40.360;2022-08-19T03:10:06;100432.94;;;18.39;80.00
26487;BME280;14425;56.136;40.360;2022-08-19T03:12:34;100443.50;;;18.45;80.63
26487;BME280;14425;56.136;40.360;2022-08-19T03:15:00;100432.16;;;18.43;80.13
26487;BME280;14425;56.136;40.360;2022-08-19T03:17:26;100437.19;;;18.32;80.73
26487;BME280;14425;56.136;40.360;2022-08-19T03:19:51;100440.66;;;18.31;81.11
26487;BME280;14425;56.136;40.360;2022-08-19T03:22:17;100438.03;;;18.30;80.86
26487;BME280;14425;56.136;40.360;2022-08-19T03:24:42;100434.44;;;18.24;81.20
26487;BME280;14425;56.136;40.360;2022-08-19T03:27:09;100428.59;;;18.38;80.55
26487;BME280;14425;56.136;40.360;2022-08-19T03:29:36;100431.91;;;18.29;80.96
26487;BME280;14425;56.136;40.360;2022-08-19T03:32:03;100439.66;;;18.21;81.65
26487;BME280;14425;56.136;40.360;2022-08-19T03:34:30;100437.28;;;18.37;81.71
26487;BME280;14425;56.136;40.360;2022-08-19T03:36:57;100432.88;;;18.34;81.31
26487;BME280;14425;56.136;40.360;2022-08-19T03:39:23;100443.19;;;18.25;82.25
26487;BME280;14425;56.136;40.360;2022-08-19T03:41:49;100439.91;;;18.37;81.25
26487;BME280;14425;56.136;40.360;2022-08-19T03:44:19;100449.41;;;18.33;81.32
26487;BME280;14425;56.136;40.360;2022-08-19T03:46:49;100446.88;;;18.39;81.58
26487;BME280;14425;56.136;40.360;2022-08-19T03:49:16;100459.84;;;18.33;81.06
26487;BME280;14425;56.136;40.360;2022-08-19T03:51:42;100444.19;;;18.33;82.00
26487;BME280;14425;56.136;40.360;2022-08-19T03:54:08;100449.53;;;18.42;81.27
26487;BME280;14425;56.136;40.360;2022-08-19T03:56:35;100440.09;;;18.51;80.98
26487;BME280;14425;56.136;40.360;2022-08-19T03:59:02;100449.84;;;18.61;79.77
26487;BME280;14425;56.136;40.360;2022-08-19T04:01:28;100440.22;;;18.58;80.00
26487;BME280;14425;56.136;40.360;2022-08-19T04:03:59;100440.25;;;18.60;79.91
26487;BME280;14425;56.136;40.360;2022-08-19T04:06:26;100442.00;;;18.61;80.07
26487;BME280;14425;56.136;40.360;2022-08-19T04:08:53;100456.09;;;18.71;78.93
26487;BME280;14425;56.136;40.360;2022-08-19T04:11:24;100449.25;;;18.80;78.96
26487;BME280;14425;56.136;40.360;2022-08-19T04:13:51;100458.31;;;19.01;76.33
26487;BME280;14425;56.136;40.360;2022-08-19T04:16:20;100462.72;;;19.05;75.96
26487;BME280;14425;56.136;40.360;2022-08-19T04:18:47;100460.00;;;18.96;77.37
26487;BME280;14425;56.136;40.360;2022-08-19T04:21:16;100463.38;;;18.90;76.75
26487;BME280;14425;56.136;40.360;2022-08-19T04:23:44;100461.66;;;18.92;77.46
26487;BME280;14425;56.136;40.360;2022-08-19T04:26:43;100448.50;;;18.85;77.45
26487;BME280;14425;56.136;40.360;2022-08-19T04:29:07;100461.00;;;19.07;76.47
26487;BME280;14425;56.136;40.360;2022-08-19T04:31:33;100455.72;;;19.04;75.72
26487;BME280;14425;56.136;40.360;2022-08-19T04:34:03;100449.81;;;19.16;75.39
26487;BME280;14425;56.136;40.360;2022-08-19T04:36:32;100451.47;;;19.09;75.11
26487;BME280;14425;56.136;40.360;2022-08-19T04:38:59;100454.13;;;19.15;75.48
26487;BME280;14425;56.136;40.360;2022-08-19T04:41:26;100463.84;;;19.24;74.51
26487;BME280;14425;56.136;40.360;2022-08-19T04:44:11;100463.00;;;19.27;75.01
26487;BME280;14425;56.136;40.360;2022-08-19T04:46:36;100467.53;;;19.40;74.07
26487;BME280;14425;56.136;40.360;2022-08-19T04:49:02;100466.69;;;19.43;73.19
26487;BME280;14425;56.136;40.360;2022-08-19T04:51:30;100466.63;;;19.38;72.96
26487;BME280;14425;56.136;40.360;2022-08-19T04:53:56;100467.00;;;19.70;71.33
26487;BME280;14425;56.136;40.360;2022-08-19T04:56:22;100470.28;;;19.49;71.99
26487;BME280;14425;56.136;40.360;2022-08-19T04:58:51;100472.91;;;19.54;72.97
26487;BME280;14425;56.136;40.360;2022-08-19T05:01:19;100482.69;;;19.69;71.75
26487;BME280;14425;56.136;40.360;2022-08-19T05:03:45;100476.03;;;19.92;71.21
26487;BME280;14425;56.136;40.360;2022-08-19T05:06:12;100476.03;;;19.92;70.37
26487;BME280;14425;56.136;40.360;2022-08-19T05:08:39;100474.28;;;19.93;70.38
26487;BME280;14425;56.136;40.360;2022-08-19T05:11:10;100478.63;;;19.92;69.22
26487;BME280;14425;56.136;40.360;2022-08-19T05:13:36;100478.66;;;19.94;70.18
26487;BME280;14425;56.136;40.360;2022-08-19T05:16:02;100473.53;;;20.08;69.17
26487;BME280;14425;56.136;40.360;2022-08-19T05:18:28;100483.25;;;20.20;68.26
26487;BME280;14425;56.136;40.360;2022-08-19T05:21:13;100482.41;;;20.22;68.00
26487;BME280;14425;56.136;40.360;2022-08-19T05:23:57;100478.06;;;20.24;68.30
26487;BME280;14425;56.136;40.360;2022-08-19T05:26:24;100483.44;;;20.40;67.51
26487;BME280;14425;56.136;40.360;2022-08-19T05:28:54;100478.13;;;20.30;67.15
26487;BME280;14425;56.136;40.360;2022-08-19T05:31:20;100477.38;;;20.45;67.16
26487;BME280;14425;56.136;40.360;2022-08-19T05:33:46;100481.06;;;20.66;66.06
26487;BME280;14425;56.136;40.360;2022-08-19T05:36:12;100483.91;;;21.03;66.00
26487;BME280;14425;56.136;40.360;2022-08-19T05:38:38;100482.22;;;21.13;64.31
26487;BME280;14425;56.136;40.360;2022-08-19T05:41:08;100487.56;;;21.30;63.27
26487;BME280;14425;56.136;40.360;2022-08-19T05:43:34;100490.34;;;21.59;62.25
26487;BME280;14425;56.136;40.360;2022-08-19T05:46:00;100483.34;;;21.59;61.40
26487;BME280;14425;56.136;40.360;2022-08-19T05:48:25;100486.91;;;21.72;61.03
26487;BME280;14425;56.136;40.360;2022-08-19T05:50:51;100484.38;;;22.19;59.17
26487;BME280;14425;56.136;40.360;2022-08-19T05:53:17;100490.56;;;22.53;57.16
26487;BME280;14425;56.136;40.360;2022-08-19T05:55:43;100482.66;;;22.72;56.06
26487;BME280;14425;56.136;40.360;2022-08-19T05:58:09;100489.66;;;22.85;55.00
26487;BME280;14425;56.136;40.360;2022-08-19T06:00:35;100498.41;;;22.88;55.14
26487;BME280;14425;56.136;40.360;2022-08-19T06:03:01;100485.25;;;22.99;54.92
26487;BME280;14425;56.136;40.360;2022-08-19T06:05:31;100490.47;;;23.02;53.96
26487;BME280;14425;56.136;40.360;2022-08-19T06:07:57;100489.66;;;22.86;53.89
26487;BME280;14425;56.136;40.360;2022-08-19T06:10:27;100486.09;;;23.21;53.21
26487;BME280;14425;56.136;40.360;2022-08-19T06:12:53;100487.63;;;23.72;52.10
26487;BME280;14425;56.136;40.360;2022-08-19T06:15:18;100490.28;;;23.66;50.90
26487;BME280;14425;56.136;40.360;2022-08-19T06:17:44;100491.00;;;24.05;50.39
26487;BME280;14425;56.136;40.360;2022-08-19T06:20:11;100491.81;;;24.13;49.35
26487;BME280;14425;56.136;40.360;2022-08-19T06:22:39;100493.66;;;23.98;48.56
26487;BME280;14425;56.136;40.360;2022-08-19T06:25:05;100489.06;;;24.28;46.90
26487;BME280;14425;56.136;40.360;2022-08-19T06:27:31;100500.50;;;24.29;46.69
26487;BME280;14425;56.136;40.360;2022-08-19T06:29:58;100500.84;;;23.64;45.97
26487;BME280;14425;56.136;40.360;2022-08-19T06:32:23;100498.03;;;24.00;46.50
26487;BME280;14425;56.136;40.360;2022-08-19T06:34:49;100490.81;;;24.29;45.49
26487;BME280;14425;56.136;40.360;2022-08-19T06:37:15;100484.59;;;24.37;45.41
26487;BME280;14425;56.136;40.360;2022-08-19T06:39:41;100485.38;;;24.57;44.55
26487;BME280;14425;56.136;40.360;2022-08-19T06:42:07;100479.38;;;24.32;45.40
26487;BME280;14425;56.136;40.360;2022-08-19T06:44:35;100479.16;;;24.61;45.09
26487;BME280;14425;56.136;40.360;2022-08-19T06:47:05;100483.59;;;24.53;44.65
26487;BME280;14425;56.136;40.360;2022-08-19T06:49:31;100479.13;;;24.66;43.12
26487;BME280;14425;56.136;40.360;2022-08-19T06:51:57;100487.09;;;24.53;43.04
26487;BME280;14425;56.136;40.360;2022-08-19T06:54:23;100474.41;;;24.97;41.75
26487;BME280;14425;56.136;40.360;2022-08-19T06:56:50;100485.38;;;24.56;42.50
26487;BME280;14425;56.136;40.360;2022-08-19T06:59:20;100475.81;;;25.32;41.52
26487;BME280;14425;56.136;40.360;2022-08-19T07:01:48;100479.28;;;25.37;40.50
26487;BME280;14425;56.136;40.360;2022-08-19T07:04:15;100486.09;;;25.55;40.24
26487;BME280;14425;56.136;40.360;2022-08-19T07:06:41;100481.63;;;25.59;39.85
26487;BME280;14425;56.136;40.360;2022-08-19T07:09:08;100488.28;;;25.88;39.52
26487;BME280;14425;56.136;40.360;2022-08-19T07:11:34;100491.59;;;26.05;38.49
26487;BME280;14425;56.136;40.360;2022-08-19T07:14:00;100479.59;;;26.40;37.81
26487;BME280;14425;56.136;40.360;2022-08-19T07:16:27;100499.63;;;26.53;36.98
26487;BME280;14425;56.136;40.360;2022-08-19T07:18:53;100486.44;;;26.52;36.31
26487;BME280;14425;56.136;40.360;2022-08-19T07:21:21;100484.31;;;26.18;36.39
26487;BME280;14425;56.136;40.360;2022-08-19T07:23:48;100494.78;;;26.80;36.91
26487;BME280;14425;56.136;40.360;2022-08-19T07:26:15;100490.97;;;26.45;35.70
26487;BME280;14425;56.136;40.360;2022-08-19T07:28:41;100482.91;;;27.03;36.26
26487;BME280;14425;56.136;40.360;2022-08-19T07:31:12;100490.56;;;26.14;36.55
26487;BME280;14425;56.136;40.360;2022-08-19T07:33:38;100482.63;;;26.71;36.15
26487;BME280;14425;56.136;40.360;2022-08-19T07:36:05;100485.56;;;27.03;35.05
26487;BME280;14425;56.136;40.360;2022-08-19T07:38:32;100485.25;;;27.62;34.29
26487;BME280;14425;56.136;40.360;2022-08-19T07:41:01;100499.97;;;28.17;32.79
26487;BME280;14425;56.136;40.360;2022-08-19T07:43:27;100492.81;;;27.40;32.45
26487;BME280;14425;56.136;40.360;2022-08-19T07:45:54;100487.19;;;26.60;33.21
26487;BME280;14425;56.136;40.360;2022-08-19T07:48:23;100495.59;;;26.85;34.56
26487;BME280;14425;56.136;40.360;2022-08-19T07:50:54;100495.03;;;27.60;33.14
26487;BME280;14425;56.136;40.360;2022-08-19T07:53:20;100499.69;;;28.28;31.76
26487;BME280;14425;56.136;40.360;2022-08-19T07:55:46;100509.22;;;28.35;30.66
26487;BME280;14425;56.136;40.360;2022-08-19T07:58:13;100490.81;;;28.31;30.52
26487;BME280;14425;56.136;40.360;2022-08-19T08:00:39;100500.31;;;27.60;28.90
26487;BME280;14425;56.136;40.360;2022-08-19T08:03:04;100492.94;;;28.51;28.54
26487;BME280;14425;56.136;40.360;2022-08-19T08:05:30;100500.53;;;28.66;28.32
26487;BME280;14425;56.136;40.360;2022-08-19T08:08:15;100513.63;;;28.36;26.49
26487;BME280;14425;56.136;40.360;2022-08-19T08:10:59;100503.69;;;28.09;26.34
26487;BME280;14425;56.136;40.360;2022-08-19T08:13:25;100498.03;;;28.60;26.18
26487;BME280;14425;56.136;40.360;2022-08-19T08:15:52;100502.56;;;28.91;27.42
26487;BME280;14425;56.136;40.360;2022-08-19T08:18:21;100504.81;;;29.05;26.27
26487;BME280;14425;56.136;40.360;2022-08-19T08:20:49;100513.72;;;29.04;26.26
26487;BME280;14425;56.136;40.360;2022-08-19T08:23:15;100514.75;;;29.62;25.65
26487;BME280;14425;56.136;40.360;2022-08-19T08:25:56;100509.22;;;29.39;25.99
26487;BME280;14425;56.136;40.360;2022-08-19T08:28:23;100507.44;;;29.06;24.56
26487;BME280;14425;56.136;40.360;2022-08-19T08:30:49;100513.56;;;28.39;25.89
26487;BME280;14425;56.136;40.360;2022-08-19T08:33:23;100515.22;;;28.44;26.62
26487;BME280;14425;56.136;40.360;2022-08-19T08:35:49;100504.03;;;29.01;26.41
26487;BME280;14425;56.136;40.360;2022-08-19T08:38:15;100498.16;;;29.23;26.45
26487;BME280;14425;56.136;40.360;2022-08-19T08:40:47;100500.56;;;28.99;25.76
26487;BME280;14425;56.136;40.360;2022-08-19T08:46:06;100506.44;;;28.78;27.10
26487;BME280;14425;56.136;40.360;2022-08-19T08:48:35;100502.53;;;29.25;26.80
26487;BME280;14425;56.136;40.360;2022-08-19T08:51:10;100511.78;;;28.76;25.86
26487;BME280;14425;56.136;40.360;2022-08-19T08:53:39;100521.09;;;28.19;27.31
26487;BME280;14425;56.136;40.360;2022-08-19T08:56:06;100517.81;;;28.83;27.49
26487;BME280;14425;56.136;40.360;2022-08-19T08:58:40;100515.97;;;28.85;26.74
26487;BME280;14425;56.136;40.360;2022-08-19T09:01:11;100534.66;;;28.07;27.53
26487;BME280;14425;56.136;40.360;2022-08-19T09:03:37;100505.53;;;29.11;27.79
26487;BME280;14425;56.136;40.360;2022-08-19T09:08:59;100518.81;;;29.44;26.22
26487;BME280;14425;56.136;40.360;2022-08-19T09:14:04;100511.38;;;29.26;26.86
26487;BME280;14425;56.136;40.360;2022-08-19T09:16:32;100517.06;;;29.43;26.22
26487;BME280;14425;56.136;40.360;2022-08-19T09:19:00;100512.56;;;30.33;25.24
26487;BME280;14425;56.136;40.360;2022-08-19T09:21:26;100521.38;;;29.15;26.66
26487;BME280;14425;56.136;40.360;2022-08-19T09:23:53;100531.00;;;28.86;27.73
26487;BME280;14425;56.136;40.360;2022-08-19T09:26:20;100536.84;;;28.27;27.98
26487;BME280;14425;56.136;40.360;2022-08-19T09:28:50;100545.75;;;28.62;28.22
26487;BME280;14425;56.136;40.360;2022-08-19T09:31:22;100528.00;;;30.22;27.73
26487;BME280;14425;56.136;40.360;2022-08-19T09:33:48;100538.13;;;29.49;27.45
26487;BME280;14425;56.136;40.360;2022-08-19T09:36:15;100543.41;;;29.82;26.57
26487;BME280;14425;56.136;40.360;2022-08-19T09:38:41;100543.56;;;30.06;26.69
26487;BME280;14425;56.136;40.360;2022-08-19T09:41:08;100529.41;;;29.76;27.91
26487;BME280;14425;56.136;40.360;2022-08-19T09:43:36;100538.56;;;29.97;27.99
26487;BME280;14425;56.136;40.360;2022-08-19T09:46:03;100535.22;;;29.90;27.03
26487;BME280;14425;56.136;40.360;2022-08-19T09:48:40;100537.16;;;30.13;27.22
26487;BME280;14425;56.136;40.360;2022-08-19T09:51:07;100539.28;;;30.58;26.27
26487;BME280;14425;56.136;40.360;2022-08-19T09:53:34;100539.88;;;30.40;26.70
26487;BME280;14425;56.136;40.360;2022-08-19T09:56:00;100547.81;;;29.21;28.47
26487;BME280;14425;56.136;40.360;2022-08-19T09:58:26;100542.78;;;30.59;27.42
26487;BME280;14425;56.136;40.360;2022-08-19T10:00:53;100550.72;;;29.74;27.97
26487;BME280;14425;56.136;40.360;2022-08-19T10:03:19;100554.84;;;30.43;28.22
26487;BME280;14425;56.136;40.360;2022-08-19T10:05:44;100547.31;;;30.57;26.91
26487;BME280;14425;56.136;40.360;2022-08-19T10:08:15;100546.59;;;30.24;27.94
26487;BME280;14425;56.136;40.360;2022-08-19T10:10:43;100546.69;;;30.75;28.02
26487;BME280;14425;56.136;40.360;2022-08-19T10:13:09;100527.06;;;30.23;28.57
26487;BME280;14425;56.136;40.360;2022-08-19T10:15:35;100525.44;;;30.47;28.96
26487;BME280;14425;56.136;40.360;2022-08-19T10:18:01;100529.03;;;31.00;27.89
26487;BME280;14425;56.136;40.360;2022-08-19T10:20:26;100541.75;;;29.78;29.34
26487;BME280;14425;56.136;40.360;2022-08-19T10:22:52;100530.63;;;29.00;29.44
26487;BME280;14425;56.136;40.360;2022-08-19T10:25:18;100543.53;;;29.78;29.24
26487;BME280;14425;56.136;40.360;2022-08-19T10:27:43;100539.59;;;29.60;28.39
26487;BME280;14425;56.136;40.360;2022-08-19T10:30:09;100550.16;;;29.63;29.09
26487;BME280;14425;56.136;40.360;2022-08-19T10:32:35;100540.22;;;30.28;27.61
26487;BME280;14425;56.136;40.360;2022-08-19T10:35:01;100557.56;;;28.48;28.19
26487;BME280;14425;56.136;40.360;2022-08-19T10:37:30;100550.00;;;27.91;28.11
26487;BME280;14425;56.136;40.360;2022-08-19T10:39:56;100567.53;;;28.37;28.40
26487;BME280;14425;56.136;40.360;2022-08-19T10:42:22;100559.69;;;28.71;28.11
26487;BME280;14425;56.136;40.360;2022-08-19T10:44:47;100540.00;;;30.07;27.92
26487;BME280;14425;56.136;40.360;2022-08-19T10:47:16;100564.31;;;29.32;27.50
26487;BME280;14425;56.136;40.360;2022-08-19T10:49:41;100565.00;;;29.06;27.93
26487;BME280;14425;56.136;40.360;2022-08-19T10:52:26;100558.34;;;28.89;27.23
26487;BME280;14425;56.136;40.360;2022-08-19T10:55:02;100558.59;;;28.04;27.93
26487;BME280;14425;56.136;40.360;2022-08-19T10:57:51;100567.03;;;28.60;27.76
26487;BME280;14425;56.136;40.360;2022-08-19T11:00:18;100568.34;;;28.41;27.98
26487;BME280;14425;56.136;40.360;2022-08-19T11:02:43;100555.00;;;28.81;28.45
26487;BME280;14425;56.136;40.360;2022-08-19T11:05:12;100556.84;;;29.78;27.92
26487;BME280;14425;56.136;40.360;2022-08-19T11:07:40;100549.44;;;30.17;27.37
26487;BME280;14425;56.136;40.360;2022-08-19T11:10:06;100544.97;;;29.58;28.03
26487;BME280;14425;56.136;40.360;2022-08-19T11:12:31;100546.50;;;29.67;28.11
26487;BME280;14425;56.136;40.360;2022-08-19T11:14:58;100544.88;;;30.49;27.64
26487;BME280;14425;56.136;40.360;2022-08-19T11:17:27;100555.81;;;29.83;27.38
26487;BME280;14425;56.136;40.360;2022-08-19T11:19:52;100552.75;;;30.24;28.73
26487;BME280;14425;56.136;40.360;2022-08-19T11:22:18;100550.88;;;30.83;27.25
26487;BME280;14425;56.136;40.360;2022-08-19T11:24:44;100561.22;;;30.65;27.74
26487;BME280;14425;56.136;40.360;2022-08-19T11:27:10;100550.47;;;31.20;26.86
26487;BME280;14425;56.136;40.360;2022-08-19T11:29:42;100553.72;;;30.21;27.73
26487;BME280;14425;56.136;40.360;2022-08-19T11:32:09;100565.31;;;31.27;26.15
26487;BME280;14425;56.136;40.360;2022-08-19T11:34:35;100559.03;;;31.05;26.45
26487;BME280;14425;56.136;40.360;2022-08-19T11:37:01;100565.53;;;30.96;25.91
26487;BME280;14425;56.136;40.360;2022-08-19T11:39:30;100566.19;;;30.49;27.12
26487;BME280;14425;56.136;40.360;2022-08-19T11:42:00;100553.16;;;31.44;26.58
26487;BME280;14425;56.136;40.360;2022-08-19T11:44:28;100554.13;;;32.14;26.32
26487;BME280;14425;56.136;40.360;2022-08-19T11:46:55;100552.56;;;31.12;26.02
26487;BME280;14425;56.136;40.360;2022-08-19T11:49:21;100549.69;;;30.38;27.18
26487;BME280;14425;56.136;40.360;2022-08-19T11:51:48;100547.53;;;31.77;27.08
26487;BME280;14425;56.136;40.360;2022-08-19T11:54:16;100544.63;;;31.59;26.05
26487;BME280;14425;56.136;40.360;2022-08-19T11:56:42;100559.59;;;30.86;26.78
26487;BME280;14425;56.136;40.360;2022-08-19T11:59:09;100565.72;;;30.90;26.45
26487;BME280;14425;56.136;40.360;2022-08-19T12:01:35;100576.94;;;30.73;25.23
26487;BME280;14425;56.136;40.360;2022-08-19T12:04:01;100573.06;;;29.98;25.29
26487;BME280;14425;56.136;40.360;2022-08-19T12:06:30;100565.53;;;29.83;25.95
26487;BME280;14425;56.136;40.360;2022-08-19T12:08:58;100569.81;;;30.47;25.94
26487;BME280;14425;56.136;40.360;2022-08-19T12:11:24;100564.22;;;31.08;26.01
26487;BME280;14425;56.136;40.360;2022-08-19T12:13:50;100568.75;;;30.79;25.30
26487;BME280;14425;56.136;40.360;2022-08-19T12:16:17;100568.97;;;31.74;24.68
26487;BME280;14425;56.136;40.360;2022-08-19T12:18:44;100565.66;;;30.38;25.44
26487;BME280;14425;56.136;40.360;2022-08-19T12:21:15;100572.09;;;30.01;24.96
26487;BME280;14425;56.136;40.360;2022-08-19T12:23:41;100566.75;;;30.86;25.16
26487;BME280;14425;56.136;40.360;2022-08-19T12:26:09;100559.78;;;31.08;25.14
26487;BME280;14425;56.136;40.360;2022-08-19T12:28:34;100571.34;;;30.26;24.73
26487;BME280;14425;56.136;40.360;2022-08-19T12:31:00;100568.03;;;30.47;26.39
26487;BME280;14425;56.136;40.360;2022-08-19T12:33:26;100560.34;;;30.91;23.75
26487;BME280;14425;56.136;40.360;2022-08-19T12:35:53;100567.56;;;29.73;25.06
26487;BME280;14425;56.136;40.360;2022-08-19T12:38:19;100566.03;;;30.26;24.38
26487;BME280;14425;56.136;40.360;2022-08-19T12:40:45;100566.69;;;30.32;24.05
26487;BME280;14425;56.136;40.360;2022-08-19T12:43:12;100574.16;;;29.60;26.05
26487;BME280;14425;56.136;40.360;2022-08-19T12:45:38;100585.44;;;28.68;26.05
26487;BME280;14425;56.136;40.360;2022-08-19T12:48:04;100572.41;;;29.27;25.59
26487;BME280;14425;56.136;40.360;2022-08-19T12:50:32;100576.06;;;28.89;25.78